Latest Weather Observations for Parawa West

IDS60901

Issued at 12:11 pm CST Wednesday 26 July 2017 (issued every 10 minutes, with the page automatically refreshed every 10 minutes)

About weather observations | Map of Adelaide area stations | Latest observations for Adelaide area | Other Formats
Station Details ID: 023875 Name: SECOND VALLEY FOREST AWS Lat: -35.57 Lon: 138.29 Height: 341.0 m
Data from the previous 72 hours. | See also: Recent months at Parawa West
Date/Time
CST
Temp
°C
App
Temp
°C
Dew
Point
°C
Rel
Hum
%
Delta-T
°C
Wind Press
QNH
hPa
Press
MSL
hPa
Rain since
9am
mm
Dir  Spd
km/h
Gust
km/h
Spd
kts
Gust
kts
26/12:00pm 12.4 9.7 7.3 71 2.5 W 11 15 6 8 1023.7 1024.1 0.0
26/11:30am 11.9 9.1 7.0 72 2.4 WSW 11 15 6 8 1023.8 1024.2 0.0
26/11:00am 12.1 10.0 8.2 77 2.0 SW 9 17 5 9 1023.7 1024.1 0.0
26/10:30am 11.6 8.6 7.9 78 1.8 SW 13 19 7 10 1023.6 1023.9 0.0
26/10:00am 11.9 10.3 8.6 80 1.7 SW 7 15 4 8 1023.7 1024.1 0.0
26/09:30am 10.9 8.9 8.5 85 1.2 SW 9 15 5 8 1023.1 1023.5 0.0
26/09:00am 10.4 8.4 8.5 88 0.9 WSW 9 15 5 8 1023.3 1023.7 0.2
26/08:30am 9.8 8.1 8.2 90 0.8 WSW 7 13 4 7 1023.0 1023.4 0.2
26/08:00am 9.3 7.6 8.4 94 0.4 WSW 7 13 4 7 1022.7 1023.1 0.2
26/07:30am 9.2 7.2 8.6 96 0.3 WSW 9 15 5 8 1022.2 1022.6 0.2
26/07:00am 9.0 6.9 8.4 96 0.3 WSW 9 15 5 8 1021.7 1022.1 0.2
26/06:30am 8.8 5.9 8.0 95 0.4 W 13 20 7 11 1021.4 1021.8 0.2
26/06:00am 8.9 5.9 7.8 93 0.5 WSW 13 19 7 10 1020.8 1021.1 0.2
26/05:30am 9.2 5.5 7.8 91 0.7 W 17 24 9 13 1020.2 1020.6 0.2
26/05:00am 9.3 6.3 7.7 90 0.8 W 13 19 7 10 1020.0 1020.4 0.2
26/04:30am 9.2 5.7 7.3 88 0.9 W 15 20 8 11 1020.0 1020.4 0.2
26/04:00am 9.2 5.7 7.0 86 1.1 W 15 20 8 11 1020.4 1020.7 0.2
26/03:30am 9.1 5.1 6.5 84 1.2 W 17 24 9 13 1020.2 1020.6 0.2
26/03:00am 9.0 5.4 6.6 85 1.1 W 15 22 8 12 1020.1 1020.5 0.2
26/02:30am 9.1 6.3 7.1 87 1.0 W 11 15 6 8 1020.0 1020.4 0.2
26/02:00am 9.2 6.6 7.6 90 0.8 WNW 11 17 6 9 1019.7 1020.1 0.2
26/01:30am 9.6 7.1 8.0 90 0.8 W 11 17 6 9 1019.6 1020.0 0.2
26/01:00am 9.7 6.3 7.8 88 0.9 W 15 24 8 13 1019.5 1019.9 0.2
26/12:30am 9.9 6.6 8.0 88 0.9 W 15 22 8 12 1019.4 1019.8 0.2
26/12:00am 10.2 6.9 8.0 86 1.1 W 15 20 8 11 1019.4 1019.8 0.2
 
Date/Time
CST
Temp
°C
App
Temp
°C
Dew
Point
°C
Rel
Hum
%
Delta-T
°C
Wind Press
QNH
hPa
Press
MSL
hPa
Rain since
9am
mm
Dir  Spd
km/h
Gust
km/h
Spd
kts
Gust
kts
25/11:30pm 10.3 6.3 8.1 86 1.1 W 19 28 10 15 1019.3 1019.7 0.2
25/11:00pm 10.4 6.5 8.5 88 0.9 W 19 32 10 17 1019.3 1019.7 0.2
25/10:30pm 10.4 6.3 8.7 89 0.8 WNW 20 30 11 16 1019.1 1019.5 0.2
25/10:00pm 10.6 6.9 9.4 92 0.6 WNW 19 28 10 15 1019.0 1019.4 0.2
25/09:30pm 10.3 6.9 9.2 93 0.6 WNW 17 24 9 13 1018.9 1019.3 0.2
25/09:00pm 10.5 6.7 9.1 91 0.7 WNW 19 30 10 16 1018.7 1019.1 0.2
25/08:30pm 10.6 6.9 9.4 92 0.6 WNW 19 32 10 17 1018.4 1018.7 0.2
25/08:00pm 10.8 7.6 9.9 94 0.5 WNW 17 22 9 12 1018.1 1018.4 0.2
25/07:30pm 11.1 7.4 10.0 93 0.6 WNW 20 30 11 16 1017.8 1018.1 0.0
25/07:00pm 11.5 8.0 10.9 96 0.3 WNW 20 33 11 18 1017.6 1017.9 0.0
25/06:30pm 11.4 7.9 10.8 96 0.3 WNW 20 30 11 16 1017.4 1017.7 0.0
25/06:00pm 11.4 7.8 10.5 94 0.5 WNW 20 30 11 16 1016.9 1017.3 0.0
25/05:30pm 11.6 7.3 10.7 94 0.5 WNW 24 33 13 18 1016.7 1017.1 0.0
25/05:00pm 11.8 7.9 10.9 94 0.5 WNW 22 39 12 21 1016.5 1016.9 0.0
25/04:30pm 11.9 7.5 10.5 91 0.7 WNW 24 37 13 20 1016.5 1016.9 0.0
25/04:00pm 12.5 7.3 10.4 87 1.1 WNW 28 52 15 28 1016.3 1016.7 0.0
25/03:30pm 12.5 8.1 10.4 87 1.1 WNW 24 44 13 24 1016.3 1016.7 0.0
25/03:00pm 13.3 8.1 10.1 81 1.7 WNW 28 41 15 22 1016.1 1016.4 0.0
25/02:30pm 13.3 7.7 10.1 81 1.7 WNW 30 44 16 24 1016.2 1016.6 0.0
25/02:00pm 13.2 8.6 10.9 86 1.2 WNW 26 39 14 21 1016.1 1016.4 0.0
25/01:30pm 13.0 8.6 10.5 85 1.3 NW 24 41 13 22 1016.2 1016.6 0.0
25/01:00pm 13.3 8.3 10.8 85 1.3 NW 28 41 15 22 1016.2 1016.6 0.0
25/12:30pm 12.6 8.4 11.2 91 0.7 NW 24 41 13 22 1016.3 1016.7 0.0
25/12:00pm 13.3 9.0 12.2 93 0.6 NW 26 43 14 23 1016.6 1017.0 0.0
25/11:30am 12.7 8.9 12.4 98 0.2 NW 24 35 13 19 1017.0 1017.4 0.0
25/11:00am 12.1 8.6 12.1 100 0.0 NW 22 33 12 18 1017.1 1017.5 0.0
25/10:30am 11.8 8.6 11.8 100 0.0 NW 20 35 11 19 1017.0 1017.4 0.0
25/10:00am 11.8 8.2 11.8 100 0.0 NW 22 37 12 20 1017.1 1017.5 0.0
25/09:30am 11.4 7.3 11.4 100 0.0 NW 24 35 13 19 1017.0 1017.4 0.0
25/09:00am 11.7 8.6 11.7 100 0.0 NW 19 28 10 15 1016.8 1017.2 0.0
25/08:30am 11.6 8.5 11.6 100 0.0 NW 19 30 10 16 1016.6 1017.0 0.0
25/08:00am 11.5 8.4 11.5 100 0.0 NW 19 30 10 16 1016.4 1016.8 0.0
25/07:30am 11.0 8.1 11.0 100 0.0 NW 17 22 9 12 1016.1 1016.4 0.0
25/07:00am 10.7 7.7 10.5 99 0.1 NW 17 24 9 13 1015.7 1016.0 0.0
25/06:30am 10.6 7.5 10.4 99 0.1 NW 17 22 9 12 1015.7 1016.0 0.0
25/06:00am 10.3 7.8 9.8 97 0.3 NNW 13 20 7 11 1015.4 1015.7 0.0
25/05:30am 9.8 8.3 9.2 96 0.3 NNW 7 13 4 7 1015.2 1015.5 0.0
25/05:00am 9.9 8.0 9.0 94 0.5 NNW 9 17 5 9 1015.4 1015.7 0.0
25/04:30am 10.0 8.4 8.9 93 0.6 NNW 7 13 4 7 1015.3 1015.6 0.0
25/04:00am 9.5 8.0 8.4 93 0.5 NNW 6 11 3 6 1015.4 1015.7 0.0
25/03:30am 9.8 8.2 8.2 90 0.8 NNW 6 9 3 5 1015.5 1015.8 0.0
25/03:00am 10.1 8.4 8.5 90 0.8 NNW 7 11 4 6 1015.6 1015.9 0.0
25/02:30am 9.9 8.3 8.2 89 0.8 NNW 6 9 3 5 1015.7 1016.0 0.0
25/02:00am 10.2 8.4 8.1 87 1.0 NNW 7 15 4 8 1015.8 1016.1 0.0
25/01:30am 10.9 8.4 8.0 82 1.4 NNW 11 24 6 13 1016.0 1016.3 0.0
25/01:00am 10.7 9.1 7.9 83 1.4 NNW 6 11 3 6 1016.2 1016.6 0.0
25/12:30am 11.2 9.4 8.1 81 1.5 NNW 7 15 4 8 1016.4 1016.8 0.0
25/12:00am 11.1 9.2 7.6 79 1.7 NNW 7 13 4 7 1016.5 1016.9 0.0
 
Date/Time
CST
Temp
°C
App
Temp
°C
Dew
Point
°C
Rel
Hum
%
Delta-T
°C
Wind Press
QNH
hPa
Press
MSL
hPa
Rain since
9am
mm
Dir  Spd
km/h
Gust
km/h
Spd
kts
Gust
kts
24/11:30pm 9.9 8.9 7.3 84 1.3 NNW 2 4 1 2 1016.7 1017.1 0.0
24/11:00pm 9.2 7.7 6.6 84 1.2 NNW 4 6 2 3 1017.1 1017.5 0.0
24/10:30pm 9.2 8.1 7.0 86 1.1 NNW 2 4 1 2 1017.3 1017.6 0.0
24/10:00pm 9.6 8.5 7.0 84 1.2 NNW 2 4 1 2 1017.5 1017.8 0.0
24/09:30pm 10.0 9.0 7.3 83 1.3 NNW 2 4 1 2 1017.7 1018.0 0.0
24/09:00pm 9.9 9.0 7.7 86 1.1 NNW 2 4 1 2 1017.9 1018.2 0.0
24/08:30pm 9.7 8.8 7.8 88 0.9 NNW 2 4 1 2 1018.0 1018.3 0.0
24/08:00pm 9.3 8.7 7.6 89 0.8 CALM 0 0 0 0 1018.2 1018.5 0.0
24/07:30pm 9.2 8.2 7.5 89 0.8 NNW 2 4 1 2 1018.1 1018.4 0.0
24/07:00pm 9.7 9.3 8.3 91 0.7 CALM 0 0 0 0 1018.1 1018.4 0.0
24/06:30pm 9.4 8.9 8.0 91 0.7 CALM 0 0 0 0 1018.0 1018.3 0.0
24/06:00pm 9.8 9.4 8.2 90 0.8 CALM 0 0 0 0 1017.8 1018.1 0.0
24/05:30pm 10.8 10.4 8.4 85 1.2 CALM 0 0 0 0 1017.9 1018.2 0.0
24/05:00pm 12.2 11.3 9.4 83 1.4 NNW 4 6 2 3 1017.9 1018.2 0.0
24/04:30pm 13.0 11.9 10.0 82 1.6 NNW 6 9 3 5 1017.9 1018.2 0.0
24/04:00pm 13.1 12.2 10.5 84 1.4 NNW 6 13 3 7 1017.9 1018.2 0.0
24/03:30pm 12.9 12.2 11.3 90 0.9 N 6 11 3 6 1017.9 1018.2 0.0
24/03:00pm 12.2 11.2 11.1 93 0.6 NNW 7 15 4 8 1018.2 1018.5 0.0
24/02:30pm 11.8 10.4 10.9 94 0.5 NW 9 19 5 10 1018.3 1018.6 0.0
24/02:00pm 12.2 11.6 11.7 97 0.3 NNW 6 11 3 6 1018.3 1018.6 0.0
24/01:30pm 11.5 10.1 11.0 97 0.3 NNW 9 20 5 11 1018.6 1018.9 0.0
24/01:00pm 11.3 10.4 11.3 100 0.0 NNW 7 15 4 8 1019.0 1019.4 0.0
24/12:30pm 10.7 9.6 10.7 100 0.0 NW 7 15 4 8 1019.5 1019.9 0.0
24/12:00pm 10.6 9.1 10.6 100 0.0 NW 9 17 5 9 1019.9 1020.3 0.0
24/11:30am 10.3 9.1 10.3 100 0.0 NNW 7 17 4 9 1020.0 1020.4 0.0
24/11:00am 10.4 8.9 10.4 100 0.0 NNW 9 17 5 9 1020.2 1020.6 0.0
24/10:30am 10.6 9.7 10.6 100 0.0 NNW 6 13 3 7 1020.5 1020.8 0.0
24/10:00am 10.1 8.8 10.1 100 0.0 NNW 7 17 4 9 1020.5 1020.8 0.0
24/09:30am 10.2 9.0 10.2 100 0.0 NW 7 19 4 10 1020.5 1020.8 0.0
24/09:00am 10.0 8.3 10.0 100 0.0 NNW 9 20 5 11 1020.4 1020.7 7.8
24/08:30am 10.2 8.2 10.2 100 0.0 NNW 11 20 6 11 1020.2 1020.6 7.6
24/08:00am 10.3 8.3 10.3 100 0.0 NW 11 19 6 10 1020.1 1020.5 7.6
24/07:30am 10.4 7.0 10.4 100 0.0 NW 19 28 10 15 1019.9 1020.3 7.6
24/07:00am 10.4 7.7 10.4 100 0.0 NW 15 24 8 13 1019.8 1020.2 7.6
24/06:30am 10.4 7.7 10.4 100 0.0 NW 15 24 8 13 1019.6 1020.0 7.6
24/06:00am 10.2 7.5 10.2 100 0.0 NW 15 22 8 12 1019.4 1019.8 7.6
24/05:30am 10.3 7.2 10.3 100 0.0 NW 17 24 9 13 1019.3 1019.7 7.6
24/05:00am 10.3 7.2 10.3 100 0.0 NW 17 24 9 13 1019.2 1019.6 7.6
24/04:30am 10.0 7.2 10.0 100 0.0 NW 15 28 8 15 1019.1 1019.5 7.6
24/04:00am 10.2 8.2 10.2 100 0.0 NW 11 17 6 9 1018.9 1019.3 7.6
24/03:30am 9.8 7.7 9.8 100 0.0 NNW 11 15 6 8 1019.1 1019.5 7.6
24/03:00am 9.7 7.9 9.6 99 0.1 NNW 9 15 5 8 1019.3 1019.7 7.6
24/02:30am 9.0 7.4 8.7 98 0.1 NNW 7 11 4 6 1019.2 1019.6 7.6
24/02:00am 8.9 7.2 8.5 97 0.2 NNW 7 9 4 5 1019.3 1019.7 7.4
24/01:30am 8.7 7.1 8.1 96 0.3 NW 6 9 3 5 1019.3 1019.7 7.4
24/01:00am 9.0 7.3 8.2 95 0.4 WNW 7 11 4 6 1019.4 1019.8 7.4
24/12:30am 9.0 6.9 8.4 96 0.3 WNW 9 13 5 7 1019.6 1020.0 7.4
24/12:00am 9.4 7.5 8.9 97 0.2 WNW 9 13 5 7 1019.7 1020.1 7.4
 
Date/Time
CST
Temp
°C
App
Temp
°C
Dew
Point
°C
Rel
Hum
%
Delta-T
°C
Wind Press
QNH
hPa
Press
MSL
hPa
Rain since
9am
mm
Dir  Spd
km/h
Gust
km/h
Spd
kts
Gust
kts
23/11:30pm 8.9 7.2 8.5 97 0.2 NW 7 11 4 6 1019.8 1020.2 7.4
23/11:00pm 8.7 7.0 8.3 97 0.2 WNW 7 11 4 6 1019.8 1020.2 7.4
23/10:30pm 8.7 7.0 8.3 97 0.2 NW 7 11 4 6 1019.7 1020.1 7.4
23/10:00pm 9.2 7.2 8.6 96 0.3 WNW 9 15 5 8 1019.5 1019.9 7.4
23/09:30pm 9.4 7.0 8.8 96 0.3 W 11 15 6 8 1019.3 1019.7 7.2
23/09:00pm 9.5 6.7 8.7 95 0.4 W 13 17 7 9 1018.9 1019.3 7.2
23/08:30pm 9.4 6.6 8.6 95 0.4 W 13 15 7 8 1018.6 1018.9 7.2
23/08:00pm 9.4 6.9 8.3 93 0.5 WNW 11 15 6 8 1018.7 1019.1 7.2
23/07:30pm 9.9 7.1 8.5 91 0.7 W 13 20 7 11 1018.4 1018.7 7.0
23/07:00pm 9.8 8.3 9.0 95 0.4 W 7 11 4 6 1018.2 1018.5 6.8
23/06:30pm 9.8 7.9 9.0 95 0.4 W 9 15 5 8 1017.9 1018.2 6.6
23/06:00pm 9.8 7.9 9.2 96 0.3 W 9 17 5 9 1017.7 1018.0 6.4
23/05:30pm 10.4 7.9 9.6 95 0.4 WSW 13 22 7 12 1017.5 1017.8 6.0
23/05:00pm 11.1 9.1 10.0 93 0.6 WNW 11 20 6 11 1017.3 1017.6 5.8
23/04:30pm 11.5 10.4 10.7 95 0.4 WNW 7 9 4 5 1017.0 1017.4 5.6
23/04:00pm 11.4 8.4 10.5 94 0.5 W 17 24 9 13 1016.8 1017.2 5.4
23/03:30pm 12.1 8.8 10.8 92 0.7 WNW 19 32 10 17 1016.6 1017.0 5.4
23/03:00pm 11.9 9.3 10.6 92 0.7 W 15 26 8 14 1016.4 1016.8 5.2
23/02:30pm 12.1 8.4 10.0 87 1.1 WNW 20 33 11 18 1016.3 1016.7 5.0
23/02:00pm 12.8 8.1 10.5 86 1.2 WNW 26 44 14 24 1016.1 1016.4 4.8
23/01:30pm 12.5 8.6 10.9 90 0.8 W 22 35 12 19 1016.2 1016.6 4.4
23/01:00pm 11.6 8.1 10.8 95 0.4 W 20 33 11 18 1016.2 1016.6 4.0
23/12:30pm 11.4 8.8 10.6 95 0.4 WNW 15 22 8 12 1016.6 1017.0 3.4

Latest Capital City Observations: Canberra | Sydney | Melbourne | Brisbane | Adelaide | Perth | Hobart | Darwin

Other Formats:

Comma delimited format used in spreadsheet applications
http://www.bom.gov.au/fwo/IDS60901/IDS60901.94811.axf

JavaScript Object Notation format (JSON) in row-major order
http://www.bom.gov.au/fwo/IDS60901/IDS60901.94811.json